createdAt,value
2019-05-23T00:00:47.110Z,101704.28
2019-05-23T00:03:42.318Z,101695.75
2019-05-23T00:06:39.368Z,101704.05
2019-05-23T00:09:29.252Z,101700.33
2019-05-23T00:12:04.432Z,101703.77
2019-05-23T00:14:55.884Z,101703.83
2019-05-23T00:17:27.445Z,101706.16
2019-05-23T00:19:59.308Z,101701.30
2019-05-23T00:22:34.199Z,101704.65
2019-05-23T00:25:05.858Z,101711.41
2019-05-23T00:27:42.121Z,101704.30
2019-05-23T00:30:14.939Z,101705.10
2019-05-23T00:32:49.281Z,101703.34
2019-05-23T00:35:20.849Z,101707.69
2019-05-23T00:37:53.039Z,101705.46
2019-05-23T00:40:39.230Z,101711.80
2019-05-23T00:43:10.517Z,101714.97
2019-05-23T00:45:42.861Z,101706.17
2019-05-23T00:48:24.619Z,101699.89
2019-05-23T00:50:55.705Z,101699.75
2019-05-23T00:53:28.243Z,101694.95
2019-05-23T00:56:04.458Z,101696.00
2019-05-23T00:58:39.493Z,101699.39
2019-05-23T01:01:16.050Z,101700.83
2019-05-23T01:03:47.033Z,101690.16
2019-05-23T01:06:17.926Z,101699.03
2019-05-23T01:08:54.679Z,101696.97
2019-05-23T01:11:25.709Z,101687.27
2019-05-23T01:13:58.011Z,101688.62
2019-05-23T01:16:31.483Z,101693.36
2019-05-23T01:19:04.582Z,101688.50
2019-05-23T01:21:51.075Z,101685.80
2019-05-23T01:24:26.491Z,101691.20
2019-05-23T01:27:06.040Z,101688.50
2019-05-23T01:29:38.763Z,101688.17
2019-05-23T01:32:25.450Z,101681.17
2019-05-23T01:34:57.184Z,101680.45
2019-05-23T01:37:28.918Z,101677.00
2019-05-23T01:39:59.882Z,101680.20
2019-05-23T01:42:30.586Z,101676.28
2019-05-23T01:45:03.454Z,101676.83
2019-05-23T01:47:37.583Z,101676.16
2019-05-23T01:50:22.608Z,101669.83
2019-05-23T01:52:54.211Z,101672.41
2019-05-23T01:55:25.180Z,101665.87
2019-05-23T01:57:55.842Z,101669.66
2019-05-23T02:00:35.401Z,101660.37
2019-05-23T02:03:06.778Z,101666.11
2019-05-23T02:05:38.200Z,101665.18
2019-05-23T02:08:14.490Z,101666.06
2019-05-23T02:10:48.770Z,101666.27
2019-05-23T02:13:19.737Z,101661.63
2019-05-23T02:15:52.536Z,101655.48
2019-05-23T02:18:23.413Z,101658.17
2019-05-23T02:20:54.114Z,101659.61
2019-05-23T02:23:30.890Z,101657.66
2019-05-23T02:26:01.604Z,101653.66
2019-05-23T02:28:35.812Z,101648.98
2019-05-23T02:31:18.023Z,101648.68
2019-05-23T02:33:48.762Z,101642.53
2019-05-23T02:36:26.830Z,101643.62
2019-05-23T02:39:20.997Z,101642.73
2019-05-23T02:41:58.429Z,101633.79
2019-05-23T02:44:32.630Z,101633.91
2019-05-23T02:47:05.043Z,101633.86
2019-05-23T02:49:37.187Z,101636.47
2019-05-23T02:52:34.635Z,101635.83
2019-05-23T02:55:10.502Z,101632.24
2019-05-23T02:57:41.783Z,101633.31
2019-05-23T03:00:58.844Z,101639.47
2019-05-23T03:03:32.118Z,101635.62
2019-05-23T03:06:04.592Z,101631.72
2019-05-23T03:08:37.046Z,101624.52
2019-05-23T03:11:36.646Z,101626.13
2019-05-23T03:14:09.453Z,101619.64
2019-05-23T03:16:42.999Z,101620.05
2019-05-23T03:19:38.750Z,101620.27
2019-05-23T03:22:37.185Z,101621.12
2019-05-23T03:25:33.556Z,101623.42
2019-05-23T03:28:10.005Z,101623.27
2019-05-23T03:30:49.067Z,101629.75
2019-05-23T03:33:20.216Z,101622.73
2019-05-23T03:35:59.676Z,101622.47
2019-05-23T03:38:32.113Z,101621.12
2019-05-23T03:41:03.577Z,101613.73
2019-05-23T03:43:39.324Z,101615.92
2019-05-23T03:46:14.651Z,101618.05
2019-05-23T03:48:47.242Z,101623.70
2019-05-23T03:51:19.646Z,101626.52
2019-05-23T03:53:57.284Z,101622.47
2019-05-23T03:56:29.897Z,101624.52
2019-05-23T03:59:00.542Z,101626.52
2019-05-23T04:01:46.969Z,101625.91
2019-05-23T04:04:06.305Z,101622.75
2019-05-23T04:06:37.285Z,101622.20
2019-05-23T04:09:08.133Z,101622.28
2019-05-23T04:11:41.336Z,101618.58
2019-05-23T04:14:15.786Z,101631.72
2019-05-23T04:16:47.180Z,101624.62
2019-05-23T04:19:18.313Z,101623.14
2019-05-23T04:21:49.576Z,101620.45
2019-05-23T04:24:20.367Z,101621.98
2019-05-23T04:26:51.094Z,101621.13
2019-05-23T04:29:22.136Z,101624.03
2019-05-23T04:32:07.356Z,101621.38
2019-05-23T04:34:25.840Z,101629.06
2019-05-23T04:36:57.198Z,101625.82
2019-05-23T04:39:28.071Z,101618.53
2019-05-23T04:42:02.010Z,101619.05
2019-05-23T04:44:33.829Z,101616.31
2019-05-23T04:47:05.706Z,101619.94
2019-05-23T04:49:37.763Z,101612.59
2019-05-23T04:52:11.101Z,101616.35
2019-05-23T04:54:42.911Z,101616.48
2019-05-23T04:57:14.437Z,101618.00
2019-05-23T04:59:45.194Z,101617.48
2019-05-23T05:02:25.323Z,101614.53
2019-05-23T05:04:50.662Z,101612.47
2019-05-23T05:07:21.849Z,101617.52
2019-05-23T05:10:02.738Z,101616.08
2019-05-23T05:12:33.841Z,101615.64
2019-05-23T05:15:14.817Z,101620.00
2019-05-23T05:17:55.843Z,101615.56
2019-05-23T05:20:32.912Z,101624.23
2019-05-23T05:23:03.841Z,101619.80
2019-05-23T05:25:44.592Z,101625.45
2019-05-23T05:28:27.826Z,101628.72
2019-05-23T05:30:58.605Z,101629.23
2019-05-23T05:33:29.784Z,101632.74
2019-05-23T05:36:00.621Z,101628.14
2019-05-23T05:38:33.336Z,101633.84
2019-05-23T05:41:06.069Z,101632.91
2019-05-23T05:43:42.713Z,101631.80
2019-05-23T05:46:18.910Z,101629.41
2019-05-23T05:48:50.779Z,101631.38
2019-05-23T05:51:22.352Z,101629.96
2019-05-23T05:53:53.376Z,101630.35
2019-05-23T05:56:23.931Z,101634.62
2019-05-23T05:58:59.727Z,101638.34
2019-05-23T06:01:34.384Z,101634.10
2019-05-23T06:04:03.929Z,101642.55
2019-05-23T06:06:49.838Z,101633.70
2019-05-23T06:09:27.563Z,101641.81
2019-05-23T06:11:58.278Z,101633.85
2019-05-23T06:14:29.238Z,101641.28
2019-05-23T06:17:00.912Z,101646.89
2019-05-23T06:19:31.582Z,101645.91
2019-05-23T06:22:02.474Z,101656.64
2019-05-23T06:24:44.916Z,101649.67
2019-05-23T06:27:07.471Z,101648.32
2019-05-23T06:29:38.250Z,101654.52
2019-05-23T06:32:10.555Z,101657.02
2019-05-23T06:34:41.459Z,101653.59
2019-05-23T06:37:12.078Z,101650.42
2019-05-23T06:39:42.917Z,101651.25
2019-05-23T06:42:13.553Z,101651.64
2019-05-23T06:44:44.231Z,101645.38
2019-05-23T06:47:15.862Z,101652.48
2019-05-23T06:49:49.640Z,101646.83
2019-05-23T06:52:35.598Z,101648.88
2019-05-23T06:55:10.801Z,101646.87
2019-05-23T06:57:41.391Z,101640.88
2019-05-23T07:00:16.069Z,101644.11
2019-05-23T07:02:47.305Z,101642.36
2019-05-23T07:05:20.113Z,101645.67
2019-05-23T07:07:50.984Z,101653.03
2019-05-23T07:10:23.054Z,101646.34
2019-05-23T07:12:53.789Z,101642.98
2019-05-23T07:15:30.638Z,101648.22
2019-05-23T07:18:14.520Z,101644.53
2019-05-23T07:20:45.647Z,101644.36
2019-05-23T07:23:24.693Z,101645.98
2019-05-23T07:25:55.434Z,101650.84
2019-05-23T07:28:26.153Z,101646.48
2019-05-23T07:30:56.885Z,101647.66
2019-05-23T07:33:29.521Z,101642.91
2019-05-23T07:36:00.134Z,101640.34
2019-05-23T07:38:30.732Z,101646.87
2019-05-23T07:41:03.278Z,101645.59
2019-05-23T07:43:34.902Z,101646.11
2019-05-23T07:46:05.761Z,101648.02
2019-05-23T07:48:36.540Z,101644.23
2019-05-23T07:51:07.472Z,101648.97
2019-05-23T07:54:05.707Z,101646.06
2019-05-23T07:56:40.138Z,101644.11
2019-05-23T07:59:10.932Z,101642.89
2019-05-23T08:01:45.640Z,101644.52
2019-05-23T08:04:21.741Z,101640.08
2019-05-23T08:06:52.810Z,101640.83
2019-05-23T08:09:24.813Z,101640.37
2019-05-23T08:11:56.456Z,101635.98
2019-05-23T08:14:31.336Z,101633.31
2019-05-23T08:17:09.130Z,101637.73
2019-05-23T08:19:48.962Z,101629.53
2019-05-23T08:22:12.413Z,101631.02
2019-05-23T08:24:43.282Z,101633.61
2019-05-23T08:27:14.129Z,101632.66
2019-05-23T08:29:48.684Z,101633.50
2019-05-23T08:32:53.753Z,101632.45
2019-05-23T08:35:24.524Z,101630.89
2019-05-23T08:37:55.633Z,101634.53
2019-05-23T08:40:26.689Z,101627.16
2019-05-23T08:42:57.261Z,101627.83
2019-05-23T08:45:27.861Z,101626.02
2019-05-23T08:47:58.692Z,101622.09
2019-05-23T08:50:29.299Z,101622.56
2019-05-23T08:52:59.943Z,101621.39
2019-05-23T08:55:31.545Z,101624.03
2019-05-23T09:01:27.086Z,101616.70
2019-05-23T09:03:57.825Z,101615.97
2019-05-23T09:06:28.611Z,101618.62
2019-05-23T09:09:29.202Z,101623.22
2019-05-23T09:11:49.475Z,101618.31
2019-05-23T09:14:20.532Z,101613.39
2019-05-23T09:16:51.853Z,101606.75
2019-05-23T09:19:27.302Z,101601.20
2019-05-23T09:21:59.057Z,101606.78
2019-05-23T09:24:29.666Z,101609.84
2019-05-23T09:27:05.863Z,101602.14
2019-05-23T09:29:40.234Z,101602.16
2019-05-23T09:32:11.499Z,101599.83
2019-05-23T09:34:42.087Z,101598.50
2019-05-23T09:37:13.433Z,101605.11
2019-05-23T09:39:44.139Z,101602.28
2019-05-23T09:42:14.721Z,101602.55
2019-05-23T09:44:45.329Z,101593.61
2019-05-23T09:47:16.020Z,101593.38
2019-05-23T09:49:53.746Z,101591.66
2019-05-23T09:52:19.712Z,101593.52
2019-05-23T09:54:50.416Z,101589.66
2019-05-23T09:57:28.599Z,101594.45
2019-05-23T10:00:07.000Z,101588.09
2019-05-23T10:02:37.793Z,101580.79
2019-05-23T10:05:12.513Z,101576.17
2019-05-23T10:07:44.239Z,101588.35
2019-05-23T10:10:17.649Z,101583.62
2019-05-23T10:12:48.380Z,101585.99
2019-05-23T10:15:33.014Z,101579.17
2019-05-23T10:18:19.518Z,101572.84
2019-05-23T10:21:09.085Z,101579.27
2019-05-23T10:23:39.612Z,101565.86
2019-05-23T10:26:18.211Z,101569.56
2019-05-23T10:28:55.515Z,101568.47
2019-05-23T10:31:36.020Z,101563.23
2019-05-23T10:34:08.719Z,101559.64
2019-05-23T10:36:40.425Z,101558.64
2019-05-23T10:39:11.896Z,101554.16
2019-05-23T10:41:42.741Z,101558.48
2019-05-23T10:44:21.103Z,101549.90
2019-05-23T10:46:54.047Z,101553.23
2019-05-23T10:49:26.750Z,101549.63
2019-05-23T10:52:02.481Z,101542.66
2019-05-23T10:54:33.273Z,101533.19
2019-05-23T10:57:05.900Z,101537.53
2019-05-23T10:59:36.561Z,101534.55
2019-05-23T11:02:07.729Z,101536.03
2019-05-23T11:04:38.325Z,101528.06
2019-05-23T11:07:10.587Z,101529.28
2019-05-23T11:09:47.453Z,101525.04
2019-05-23T11:12:18.144Z,101520.16
2019-05-23T11:14:54.434Z,101518.09
2019-05-23T11:17:35.395Z,101509.70
2019-05-23T11:20:06.622Z,101518.03
2019-05-23T11:22:39.435Z,101520.88
2019-05-23T11:25:17.718Z,101511.54
2019-05-23T11:27:49.386Z,101510.72
2019-05-23T11:30:25.308Z,101504.27
2019-05-23T11:32:56.035Z,101503.92
2019-05-23T11:35:27.744Z,101503.78
2019-05-23T11:37:58.424Z,101505.08
2019-05-23T11:40:33.874Z,101491.69
2019-05-23T11:43:22.960Z,101491.84
2019-05-23T11:45:58.248Z,101487.73
2019-05-23T11:48:29.086Z,101482.50
2019-05-23T11:51:01.897Z,101481.69
2019-05-23T11:53:33.106Z,101479.19
2019-05-23T11:56:03.859Z,101478.80
2019-05-23T11:58:37.882Z,101479.94
2019-05-23T12:01:26.817Z,101475.42
2019-05-23T12:04:02.160Z,101478.08
2019-05-23T12:06:53.567Z,101471.96
2019-05-23T12:09:13.234Z,101473.97
2019-05-23T12:11:50.014Z,101474.61
2019-05-23T12:14:26.931Z,101470.83
2019-05-23T12:16:57.703Z,101469.57
2019-05-23T12:19:34.608Z,101470.76
2019-05-23T12:22:05.376Z,101472.77
2019-05-23T12:24:38.147Z,101468.66
2019-05-23T12:27:10.068Z,101463.78
2019-05-23T12:29:41.720Z,101464.07
2019-05-23T12:32:15.038Z,101466.31
2019-05-23T12:35:08.674Z,101461.97
2019-05-23T12:37:21.745Z,101454.57
2019-05-23T12:39:52.664Z,101453.78
2019-05-23T12:42:23.278Z,101457.72
2019-05-23T12:44:53.870Z,101447.68
2019-05-23T12:47:26.267Z,101447.75
2019-05-23T12:49:58.493Z,101444.36
2019-05-23T12:52:33.380Z,101440.91
2019-05-23T12:55:06.427Z,101440.73
2019-05-23T12:57:37.311Z,101441.56
2019-05-23T13:00:09.849Z,101433.56
2019-05-23T13:02:40.861Z,101433.64
2019-05-23T13:05:12.979Z,101433.41
2019-05-23T13:07:43.588Z,101430.25
2019-05-23T13:10:14.567Z,101429.45
2019-05-23T13:12:45.265Z,101430.19
2019-05-23T13:15:16.391Z,101424.69
2019-05-23T13:17:47.050Z,101418.27
2019-05-23T13:20:18.024Z,101420.36
2019-05-23T13:22:48.801Z,101416.18
2019-05-23T13:25:19.509Z,101409.98
2019-05-23T13:27:50.290Z,101408.48
2019-05-23T13:30:20.978Z,101403.47
2019-05-23T13:32:51.574Z,101405.56
2019-05-23T13:35:22.865Z,101406.37
2019-05-23T13:37:54.504Z,101407.96
2019-05-23T13:40:51.577Z,101410.27
2019-05-23T13:43:27.407Z,101411.54
2019-05-23T13:45:58.080Z,101409.52
2019-05-23T13:48:29.034Z,101412.41
2019-05-23T13:50:59.865Z,101413.66
2019-05-23T13:53:34.835Z,101407.96
2019-05-23T13:56:06.201Z,101400.33
2019-05-23T13:58:37.141Z,101389.91
2019-05-23T14:01:09.995Z,101401.22
2019-05-23T14:03:40.882Z,101402.12
2019-05-23T14:06:11.447Z,101396.07
2019-05-23T14:08:42.109Z,101384.59
2019-05-23T14:11:13.362Z,101394.53
2019-05-23T14:13:44.361Z,101387.83
2019-05-23T14:16:15.083Z,101386.57
2019-05-23T14:18:46.043Z,101385.38
2019-05-23T14:21:16.757Z,101387.88
2019-05-23T14:23:47.360Z,101382.52
2019-05-23T14:26:18.383Z,101383.39
2019-05-23T14:28:48.962Z,101381.58
2019-05-23T14:31:19.676Z,101377.90
2019-05-23T14:33:58.139Z,101371.38
2019-05-23T14:36:50.769Z,101370.70
2019-05-23T14:39:26.548Z,101367.20
2019-05-23T14:42:01.552Z,101370.86
2019-05-23T14:44:32.372Z,101370.75
2019-05-23T14:47:19.541Z,101372.13
2019-05-23T14:50:04.613Z,101364.61
2019-05-23T14:52:47.292Z,101375.16
2019-05-23T14:55:23.932Z,101365.56
2019-05-23T14:57:55.192Z,101363.42
2019-05-23T15:00:37.554Z,101371.20
2019-05-23T15:03:22.567Z,101369.19
2019-05-23T15:05:53.299Z,101364.91
2019-05-23T15:08:24.944Z,101357.28
2019-05-23T15:10:55.543Z,101345.27
2019-05-23T15:16:04.518Z,101346.19
2019-05-23T15:18:35.112Z,101352.28
2019-05-23T15:21:05.883Z,101355.36
2019-05-23T15:23:37.910Z,101337.75
2019-05-23T15:26:27.656Z,101340.65
2019-05-23T15:28:58.244Z,101335.98
2019-05-23T15:31:32.504Z,101337.59
2019-05-23T15:34:10.070Z,101337.06
2019-05-23T15:36:41.956Z,101339.25
2019-05-23T15:39:12.863Z,101337.98
2019-05-23T15:41:44.605Z,101330.91
2019-05-23T15:44:25.667Z,101337.98
2019-05-23T15:46:53.515Z,101333.44
2019-05-23T15:49:24.188Z,101332.44
2019-05-23T15:52:13.128Z,101335.89
2019-05-23T15:54:53.326Z,101334.10
2019-05-23T15:57:28.274Z,101332.02
2019-05-23T16:00:05.368Z,101333.05
2019-05-23T16:02:41.209Z,101330.44
2019-05-23T16:05:14.144Z,101318.91
2019-05-23T16:07:46.227Z,101320.28
2019-05-23T16:10:20.566Z,101328.83
2019-05-23T16:12:52.133Z,101328.83
2019-05-23T16:15:24.554Z,101325.11
2019-05-23T16:17:55.953Z,101323.34
2019-05-23T16:20:29.602Z,101315.09
2019-05-23T16:23:00.694Z,101307.63
2019-05-23T16:25:31.639Z,101320.91
2019-05-23T16:28:03.540Z,101314.16
2019-05-23T16:30:35.051Z,101317.33
2019-05-23T16:33:06.830Z,101313.22
2019-05-23T16:35:38.001Z,101319.70
2019-05-23T16:38:09.993Z,101314.72
2019-05-23T16:40:44.427Z,101318.09
2019-05-23T16:43:16.069Z,101319.86
2019-05-23T16:45:54.377Z,101311.63
2019-05-23T16:48:26.669Z,101311.23
2019-05-23T16:51:04.122Z,101312.19
2019-05-23T16:53:40.217Z,101308.49
2019-05-23T16:56:21.667Z,101321.61
2019-05-23T16:59:03.189Z,101318.48
2019-05-23T17:01:57.782Z,101316.52
2019-05-23T17:04:33.276Z,101314.00
2019-05-23T17:07:22.096Z,101309.10
2019-05-23T17:10:08.391Z,101313.16
2019-05-23T17:12:33.785Z,101315.91
2019-05-23T17:15:24.626Z,101308.44
2019-05-23T17:18:09.513Z,101302.95
2019-05-23T17:20:43.914Z,101308.55
2019-05-23T17:23:26.202Z,101305.38
2019-05-23T17:26:10.547Z,101311.08
2019-05-23T17:28:48.883Z,101312.66
2019-05-23T17:31:21.455Z,101304.01
2019-05-23T17:33:52.538Z,101305.33
2019-05-23T17:36:24.397Z,101305.77
2019-05-23T17:38:59.888Z,101313.02
2019-05-23T17:41:30.836Z,101308.20
2019-05-23T17:44:01.497Z,101308.52
2019-05-23T17:46:32.636Z,101304.19
2019-05-23T17:49:03.273Z,101311.27
2019-05-23T17:51:33.958Z,101309.40
2019-05-23T17:54:04.739Z,101305.42
2019-05-23T17:56:36.527Z,101310.84
2019-05-23T17:59:07.276Z,101308.47
2019-05-23T18:01:44.361Z,101305.52
2019-05-23T18:04:16.746Z,101300.19
2019-05-23T18:06:47.354Z,101305.14
2019-05-23T18:09:20.657Z,101309.63
2019-05-23T18:11:55.475Z,101298.05
2019-05-23T18:14:25.926Z,101304.30
2019-05-23T18:16:56.796Z,101307.70
2019-05-23T18:19:28.004Z,101304.55
2019-05-23T18:22:03.049Z,101301.66
2019-05-23T18:24:33.983Z,101302.59
2019-05-23T18:27:06.302Z,101291.72
2019-05-23T18:29:37.127Z,101294.61
2019-05-23T18:32:09.689Z,101293.86
2019-05-23T18:34:42.386Z,101298.78
2019-05-23T18:37:14.110Z,101298.94
2019-05-23T18:39:45.185Z,101297.00
2019-05-23T18:42:16.674Z,101303.26
2019-05-23T18:44:49.372Z,101304.21
2019-05-23T18:47:25.586Z,101307.95
2019-05-23T18:49:56.687Z,101303.20
2019-05-23T18:52:27.342Z,101311.84
2019-05-23T18:54:58.095Z,101313.80
2019-05-23T18:57:28.716Z,101306.88
2019-05-23T18:59:59.486Z,101312.70
2019-05-23T19:02:30.849Z,101322.44
2019-05-23T19:05:01.993Z,101322.97
2019-05-23T19:07:41.072Z,101324.53
2019-05-23T19:10:17.683Z,101330.80
2019-05-23T19:12:48.463Z,101324.53
2019-05-23T19:15:26.409Z,101330.00
2019-05-23T19:17:57.685Z,101326.08
2019-05-23T19:20:29.250Z,101329.66
2019-05-23T19:23:05.335Z,101330.28
2019-05-23T19:25:36.223Z,101334.49
2019-05-23T19:28:08.552Z,101334.49
2019-05-23T19:30:42.257Z,101339.16
2019-05-23T19:33:13.183Z,101337.61
2019-05-23T19:35:47.411Z,101338.66
2019-05-23T19:38:17.184Z,101345.91
2019-05-23T19:40:48.447Z,101349.05
2019-05-23T19:43:19.444Z,101353.20
2019-05-23T19:45:56.780Z,101348.22
2019-05-23T19:48:27.818Z,101346.13
2019-05-23T19:50:58.805Z,101348.00
2019-05-23T19:53:29.685Z,101356.89
2019-05-23T19:56:01.529Z,101356.81
2019-05-23T19:58:34.841Z,101357.98
2019-05-23T20:01:06.879Z,101363.27
2019-05-23T20:03:38.805Z,101357.48
2019-05-23T20:06:10.922Z,101355.73
2019-05-23T20:08:47.938Z,101360.61
2019-05-23T20:11:19.952Z,101362.71
2019-05-23T20:13:51.647Z,101361.00
2019-05-23T20:16:22.277Z,101359.31
2019-05-23T20:18:53.880Z,101359.31
2019-05-23T20:21:25.585Z,101354.63
2019-05-23T20:24:01.261Z,101360.61
2019-05-23T20:26:31.900Z,101357.38
2019-05-23T20:29:03.690Z,101355.65
2019-05-23T20:31:34.256Z,101358.04
2019-05-23T20:34:07.412Z,101361.66
2019-05-23T20:36:38.306Z,101362.64
2019-05-23T20:39:09.042Z,101357.44
2019-05-23T20:41:39.942Z,101360.92
2019-05-23T20:44:13.981Z,101356.84
2019-05-23T20:46:44.570Z,101356.83
2019-05-23T20:49:15.527Z,101353.86
2019-05-23T20:51:46.183Z,101352.37
2019-05-23T20:54:16.951Z,101356.70
2019-05-23T20:56:47.766Z,101360.73
2019-05-23T20:59:18.488Z,101354.38
2019-05-23T21:01:49.500Z,101358.59
2019-05-23T21:04:21.104Z,101361.90
2019-05-23T21:06:52.402Z,101360.88
2019-05-23T21:09:23.207Z,101359.00
2019-05-23T21:11:55.879Z,101356.39
2019-05-23T21:14:26.517Z,101354.72
2019-05-23T21:16:57.226Z,101355.10
2019-05-23T21:19:27.933Z,101354.70
2019-05-23T21:21:58.592Z,101352.45
2019-05-23T21:24:30.917Z,101355.73
2019-05-23T21:27:05.790Z,101352.25
2019-05-23T21:29:36.424Z,101354.12
2019-05-23T21:32:07.671Z,101346.06
2019-05-23T21:34:38.686Z,101347.97
2019-05-23T21:37:09.303Z,101344.89
2019-05-23T21:39:40.194Z,101345.83
2019-05-23T21:42:11.182Z,101345.77
2019-05-23T21:48:05.983Z,101341.30
2019-05-23T21:53:40.556Z,101338.19
2019-05-23T21:56:13.406Z,101338.00
2019-05-23T21:58:44.352Z,101332.53
2019-05-23T22:01:19.289Z,101337.81
2019-05-23T22:03:52.862Z,101336.50
2019-05-23T22:06:37.867Z,101330.63
2019-05-23T22:09:10.179Z,101323.75
2019-05-23T22:11:40.888Z,101324.61
2019-05-23T22:14:11.490Z,101324.72
2019-05-23T22:16:42.236Z,101332.67
2019-05-23T22:19:14.806Z,101329.83
2019-05-23T22:21:54.599Z,101328.47
2019-05-23T22:24:27.034Z,101324.41
2019-05-23T22:26:57.974Z,101322.28
2019-05-23T22:29:31.082Z,101320.88
2019-05-23T22:32:10.334Z,101324.07
2019-05-23T22:34:43.294Z,101321.02
2019-05-23T22:37:15.604Z,101320.41
2019-05-23T22:39:46.378Z,101329.34
2019-05-23T22:42:21.699Z,101321.91
2019-05-23T22:44:52.813Z,101323.20
2019-05-23T22:47:24.633Z,101319.75
2019-05-23T22:49:55.748Z,101313.50
2019-05-23T22:52:26.561Z,101320.64
2019-05-23T22:54:57.376Z,101310.88
2019-05-23T22:57:28.178Z,101314.56
2019-05-23T22:59:59.191Z,101312.22
2019-05-23T23:02:30.484Z,101315.70
2019-05-23T23:05:01.395Z,101310.16
2019-05-23T23:07:33.239Z,101306.33
2019-05-23T23:10:04.064Z,101308.45
2019-05-23T23:12:34.955Z,101306.44
2019-05-23T23:15:07.771Z,101300.54
2019-05-23T23:17:38.509Z,101305.39
2019-05-23T23:20:09.649Z,101298.44
2019-05-23T23:22:40.827Z,101298.91
2019-05-23T23:25:17.730Z,101302.50
2019-05-23T23:27:50.503Z,101305.21
2019-05-23T23:30:25.981Z,101294.67
2019-05-23T23:32:57.923Z,101291.08
2019-05-23T23:35:28.529Z,101287.59
2019-05-23T23:38:00.153Z,101280.35
2019-05-23T23:40:30.887Z,101284.42
2019-05-23T23:43:01.452Z,101284.93
2019-05-23T23:45:50.296Z,101287.25
2019-05-23T23:48:40.948Z,101276.88
2019-05-23T23:51:30.678Z,101282.04
2019-05-23T23:54:19.170Z,101283.30
2019-05-23T23:57:11.353Z,101277.87
2019-05-23T23:59:41.198Z,101270.33
